createdAt,value
2022-11-09T00:00:45.966Z,100316.22
2022-11-09T00:03:12.461Z,100306.63
2022-11-09T00:05:39.163Z,100305.78
2022-11-09T00:08:06.837Z,100301.44
2022-11-09T00:10:33.567Z,100297.97
2022-11-09T00:13:00.412Z,100303.19
2022-11-09T00:15:26.893Z,100296.22
2022-11-09T00:17:53.377Z,100302.31
2022-11-09T00:20:19.864Z,100315.31
2022-11-09T00:22:50.111Z,100298.75
2022-11-09T00:25:16.669Z,100289.16
2022-11-09T00:27:43.159Z,100288.28
2022-11-09T00:30:10.517Z,100289.97
2022-11-09T00:32:36.985Z,100294.31
2022-11-09T00:35:03.691Z,100294.28
2022-11-09T00:37:30.672Z,100290.78
2022-11-09T00:39:57.242Z,100297.72
2022-11-09T00:42:23.648Z,100287.28
2022-11-09T00:44:50.068Z,100291.59
2022-11-09T00:47:16.532Z,100302.81
2022-11-09T00:49:42.932Z,100298.44
2022-11-09T00:52:09.334Z,100297.53
2022-11-09T00:54:35.749Z,100288.78
2022-11-09T00:57:02.166Z,100275.72
2022-11-09T00:59:28.565Z,100271.31
2022-11-09T01:01:54.988Z,100275.63
2022-11-09T01:04:21.404Z,100277.31
2022-11-09T01:06:47.887Z,100274.72
2022-11-09T01:09:14.317Z,100285.13
2022-11-09T01:11:40.761Z,100292.91
2022-11-09T01:14:07.214Z,100285.06
2022-11-09T01:16:33.692Z,100275.50
2022-11-09T01:19:00.116Z,100261.63
2022-11-09T01:21:27.320Z,100266.81
2022-11-09T01:23:54.410Z,100255.47
2022-11-09T01:26:21.316Z,100247.59
2022-11-09T01:28:47.767Z,100239.72
2022-11-09T01:31:17.310Z,100240.56
2022-11-09T01:33:43.878Z,100244.94
2022-11-09T01:36:12.738Z,100238.78
2022-11-09T01:38:39.809Z,100250.97
2022-11-09T01:41:07.337Z,100250.94
2022-11-09T01:43:34.452Z,100248.34
2022-11-09T01:46:03.708Z,100241.44
2022-11-09T01:48:33.572Z,100236.22
2022-11-09T01:51:05.300Z,100239.66
2022-11-09T01:53:35.113Z,100240.53
2022-11-09T01:56:04.295Z,100239.66
2022-11-09T01:59:04.179Z,100267.44
2022-11-09T02:01:31.574Z,100244.88
2022-11-09T02:04:07.184Z,100241.38
2022-11-09T02:06:34.095Z,100240.53
2022-11-09T02:09:18.714Z,100234.47
2022-11-09T02:11:45.118Z,100237.94
2022-11-09T02:14:11.944Z,100241.44
2022-11-09T02:16:38.622Z,100237.97
2022-11-09T02:19:05.048Z,100237.97
2022-11-09T02:21:32.146Z,100239.75
2022-11-09T02:23:59.257Z,100235.41
2022-11-09T02:26:36.299Z,100233.72
2022-11-09T02:29:05.494Z,100230.22
2022-11-09T02:31:34.243Z,100238.03
2022-11-09T02:34:08.876Z,100235.44
2022-11-09T02:36:35.639Z,100225.91
2022-11-09T02:39:02.250Z,100223.38
2022-11-09T02:41:29.878Z,100232.91
2022-11-09T02:43:56.547Z,100235.53
2022-11-09T02:46:25.147Z,100243.41
2022-11-09T02:48:52.031Z,100241.69
2022-11-09T02:51:18.419Z,100238.28
2022-11-09T02:53:44.848Z,100224.53
2022-11-09T02:56:11.242Z,100227.16
2022-11-09T02:58:37.653Z,100228.91
2022-11-09T03:01:04.161Z,100227.28
2022-11-09T03:03:30.865Z,100232.50
2022-11-09T03:05:57.262Z,100235.19
2022-11-09T03:08:23.683Z,100225.53
2022-11-09T03:10:50.098Z,100224.75
2022-11-09T03:13:16.679Z,100224.75
2022-11-09T03:15:43.177Z,100226.50
2022-11-09T03:18:09.630Z,100231.72
2022-11-09T03:20:36.146Z,100235.28
2022-11-09T03:23:02.867Z,100241.41
2022-11-09T03:25:29.292Z,100248.38
2022-11-09T03:27:59.810Z,100244.81
2022-11-09T03:30:26.766Z,100253.59
2022-11-09T03:33:00.927Z,100264.03
2022-11-09T03:35:27.644Z,100266.63
2022-11-09T03:37:54.402Z,100262.34
2022-11-09T03:40:21.170Z,100259.81
2022-11-09T03:42:48.671Z,100261.50
2022-11-09T03:45:16.223Z,100251.13
2022-11-09T03:47:43.462Z,100244.22
2022-11-09T03:50:10.365Z,100252.06
2022-11-09T03:52:37.010Z,100244.25
2022-11-09T03:55:04.877Z,100241.63
2022-11-09T03:57:31.424Z,100240.75
2022-11-09T03:59:57.835Z,100237.31
2022-11-09T04:02:24.264Z,100236.44
2022-11-09T04:04:50.670Z,100234.72
2022-11-09T04:07:17.172Z,100238.19
2022-11-09T04:09:43.643Z,100241.75
2022-11-09T04:12:10.099Z,100242.63
2022-11-09T04:14:36.519Z,100237.44
2022-11-09T04:17:02.974Z,100240.88
2022-11-09T04:19:29.382Z,100235.69
2022-11-09T04:21:55.789Z,100231.38
2022-11-09T04:24:22.185Z,100240.97
2022-11-09T04:26:48.632Z,100237.50
2022-11-09T04:29:15.036Z,100235.75
2022-11-09T04:31:41.435Z,100240.97
2022-11-09T04:34:08.186Z,100244.47
2022-11-09T04:36:34.646Z,100250.59
2022-11-09T04:39:01.041Z,100260.16
2022-11-09T04:41:28.193Z,100262.81
2022-11-09T04:43:54.588Z,100258.47
2022-11-09T04:46:20.988Z,100260.22
2022-11-09T04:48:47.420Z,100261.03
2022-11-09T04:51:13.964Z,100255.78
2022-11-09T04:53:41.542Z,100254.91
2022-11-09T04:56:08.390Z,100256.59
2022-11-09T04:58:34.899Z,100247.84
2022-11-09T05:01:05.790Z,100245.25
2022-11-09T05:03:32.319Z,100246.09
2022-11-09T05:05:58.824Z,100246.97
2022-11-09T05:08:25.392Z,100239.13
2022-11-09T05:10:51.807Z,100234.78
2022-11-09T05:13:18.443Z,100241.75
2022-11-09T05:15:45.040Z,100241.63
2022-11-09T05:18:11.457Z,100237.31
2022-11-09T05:20:37.905Z,100242.50
2022-11-09T05:23:23.444Z,100238.16
2022-11-09T05:25:50.125Z,100234.72
2022-11-09T05:28:16.606Z,100238.19
2022-11-09T05:30:43.056Z,100238.19
2022-11-09T05:33:09.459Z,100249.47
2022-11-09T05:35:35.857Z,100250.31
2022-11-09T05:38:02.270Z,100237.31
2022-11-09T05:40:28.709Z,100246.88
2022-11-09T05:42:56.595Z,100238.16
2022-11-09T05:48:13.695Z,100229.41
2022-11-09T05:50:41.218Z,100239.00
2022-11-09T05:53:08.151Z,100237.25
2022-11-09T05:55:34.868Z,100237.22
2022-11-09T05:58:01.335Z,100240.72
2022-11-09T06:00:28.335Z,100238.91
2022-11-09T06:02:54.800Z,100232.81
2022-11-09T06:05:21.606Z,100231.06
2022-11-09T06:07:48.054Z,100213.66
2022-11-09T06:10:14.492Z,100223.19
2022-11-09T06:12:40.916Z,100229.25
2022-11-09T06:15:07.803Z,100226.63
2022-11-09T06:17:34.231Z,100235.31
2022-11-09T06:20:00.656Z,100250.06
2022-11-09T06:22:27.088Z,100249.19
2022-11-09T06:24:53.527Z,100259.63
2022-11-09T06:27:19.990Z,100270.88
2022-11-09T06:29:46.552Z,100280.41
2022-11-09T06:32:12.966Z,100269.13
2022-11-09T06:34:39.384Z,100273.44
2022-11-09T06:37:05.784Z,100265.63
2022-11-09T06:39:32.169Z,100269.13
2022-11-09T06:41:58.589Z,100273.47
2022-11-09T06:44:24.981Z,100274.34
2022-11-09T06:46:51.392Z,100280.41
2022-11-09T06:49:17.787Z,100283.91
2022-11-09T06:51:44.215Z,100292.59
2022-11-09T06:54:10.665Z,100292.56
2022-11-09T06:56:37.084Z,100302.88
2022-11-09T06:59:03.515Z,100309.00
2022-11-09T07:01:30.038Z,100315.94
2022-11-09T07:03:56.700Z,100314.22
2022-11-09T07:06:23.201Z,100312.50
2022-11-09T07:08:49.905Z,100311.63
2022-11-09T07:11:16.816Z,100307.31
2022-11-09T07:13:43.237Z,100322.03
2022-11-09T07:16:11.981Z,100318.53
2022-11-09T07:18:38.653Z,100315.94
2022-11-09T07:21:10.078Z,100319.41
2022-11-09T07:23:40.607Z,100307.25
2022-11-09T07:26:07.222Z,100312.50
2022-11-09T07:28:34.013Z,100302.94
2022-11-09T07:31:01.037Z,100303.75
2022-11-09T07:33:30.290Z,100303.78
2022-11-09T07:35:58.789Z,100296.81
2022-11-09T07:38:25.324Z,100295.00
2022-11-09T07:40:52.000Z,100300.22
2022-11-09T07:43:18.961Z,100300.28
2022-11-09T07:45:45.669Z,100289.81
2022-11-09T07:48:12.770Z,100293.34
2022-11-09T07:50:40.247Z,100297.50
2022-11-09T07:53:07.289Z,100293.22
2022-11-09T07:55:34.809Z,100305.34
2022-11-09T07:58:21.465Z,100304.56
2022-11-09T08:00:47.904Z,100316.75
2022-11-09T08:03:14.324Z,100323.63
2022-11-09T08:05:40.979Z,100330.66
2022-11-09T08:08:09.128Z,100321.88
2022-11-09T08:10:36.212Z,100321.19
2022-11-09T08:13:05.295Z,100333.44
2022-11-09T08:15:32.232Z,100337.81
2022-11-09T08:18:00.875Z,100337.91
2022-11-09T08:20:27.454Z,100336.25
2022-11-09T08:22:54.015Z,100338.06
2022-11-09T08:25:20.474Z,100346.78
2022-11-09T08:27:46.949Z,100351.25
2022-11-09T08:30:19.451Z,100355.81
2022-11-09T08:32:46.625Z,100359.38
2022-11-09T08:35:17.703Z,100360.38
2022-11-09T08:37:45.449Z,100373.56
2022-11-09T08:40:11.889Z,100362.31
2022-11-09T08:42:38.331Z,100358.09
2022-11-09T08:45:05.673Z,100360.78
2022-11-09T08:47:32.090Z,100368.78
2022-11-09T08:49:58.509Z,100362.72
2022-11-09T08:52:24.930Z,100360.19
2022-11-09T08:54:51.362Z,100360.28
2022-11-09T08:57:19.213Z,100358.59
2022-11-09T08:59:46.462Z,100345.56
2022-11-09T09:02:15.636Z,100350.78
2022-11-09T09:04:42.154Z,100362.22
2022-11-09T09:07:08.640Z,100362.31
2022-11-09T09:09:35.440Z,100359.72
2022-11-09T09:12:01.856Z,100353.75
2022-11-09T09:14:28.327Z,100351.94
2022-11-09T09:16:54.956Z,100351.13
2022-11-09T09:19:21.592Z,100357.16
2022-11-09T09:21:47.982Z,100359.03
2022-11-09T09:24:14.399Z,100360.75
2022-11-09T09:26:40.834Z,100366.81
2022-11-09T09:29:07.258Z,100369.38
2022-11-09T09:31:33.674Z,100368.56
2022-11-09T09:34:00.097Z,100369.44
2022-11-09T09:36:26.497Z,100365.09
2022-11-09T09:38:53.955Z,100371.16
2022-11-09T09:41:28.926Z,100368.53
2022-11-09T09:43:58.983Z,100370.22
2022-11-09T09:46:28.427Z,100364.19
2022-11-09T09:48:58.574Z,100359.88
2022-11-09T09:51:30.236Z,100352.06
2022-11-09T09:54:01.532Z,100348.66
2022-11-09T09:56:34.690Z,100344.31
2022-11-09T09:59:34.983Z,100340.94
2022-11-09T10:02:01.401Z,100339.19
2022-11-09T10:04:36.770Z,100335.81
2022-11-09T10:07:09.461Z,100337.63
2022-11-09T10:10:00.332Z,100340.41
2022-11-09T10:12:32.830Z,100338.66
2022-11-09T10:15:10.004Z,100345.66
2022-11-09T10:18:04.962Z,100340.63
2022-11-09T10:20:58.675Z,100345.03
2022-11-09T10:23:52.831Z,100348.53
2022-11-09T10:26:23.909Z,100354.72
2022-11-09T10:29:15.235Z,100353.03
2022-11-09T10:31:42.636Z,100347.81
2022-11-09T10:34:21.232Z,100356.59
2022-11-09T10:36:51.889Z,100356.53
2022-11-09T10:39:18.703Z,100345.25
2022-11-09T10:41:48.422Z,100349.59
2022-11-09T10:44:17.889Z,100346.09
2022-11-09T10:47:10.450Z,100341.78
2022-11-09T10:49:37.868Z,100348.84
2022-11-09T10:52:05.540Z,100349.69
2022-11-09T10:54:37.766Z,100351.47
2022-11-09T10:57:15.366Z,100336.69
2022-11-09T10:59:56.380Z,100334.09
2022-11-09T11:02:25.968Z,100333.16
2022-11-09T11:05:17.890Z,100330.59
2022-11-09T11:07:45.662Z,100333.28
2022-11-09T11:10:14.962Z,100333.19
2022-11-09T11:12:42.624Z,100328.88
2022-11-09T11:15:25.800Z,100333.28
2022-11-09T11:18:00.761Z,100334.19
2022-11-09T11:20:32.605Z,100329.00
2022-11-09T11:23:11.207Z,100337.81
2022-11-09T11:25:58.501Z,100329.00
2022-11-09T11:28:52.360Z,100326.47
2022-11-09T11:31:20.336Z,100314.25
2022-11-09T11:33:47.189Z,100315.13
2022-11-09T11:36:25.750Z,100325.63
2022-11-09T11:39:27.020Z,100321.31
2022-11-09T11:42:27.570Z,100322.22
2022-11-09T11:45:39.547Z,100322.25
2022-11-09T11:48:21.944Z,100319.66
2022-11-09T11:50:54.180Z,100312.69
2022-11-09T11:53:31.604Z,100316.19
2022-11-09T11:56:08.050Z,100325.81
2022-11-09T11:58:53.222Z,100329.38
2022-11-09T12:01:31.691Z,100328.50
2022-11-09T12:04:15.984Z,100327.66
2022-11-09T12:06:57.800Z,100324.25
2022-11-09T12:10:08.367Z,100316.38
2022-11-09T12:13:19.356Z,100318.22
2022-11-09T12:15:59.861Z,100314.75
2022-11-09T12:19:03.962Z,100306.94
2022-11-09T12:21:42.412Z,100317.44
2022-11-09T12:24:20.476Z,100311.34
2022-11-09T12:27:31.601Z,100311.38
2022-11-09T12:30:15.726Z,100309.63
2022-11-09T12:32:54.417Z,100303.47
2022-11-09T12:35:20.804Z,100303.50
2022-11-09T12:38:03.671Z,100298.25
2022-11-09T12:40:34.107Z,100301.75
2022-11-09T12:43:35.034Z,100307.84
2022-11-09T12:46:02.705Z,100297.41
2022-11-09T12:48:32.137Z,100302.63
2022-11-09T12:50:59.937Z,100300.97
2022-11-09T12:53:29.011Z,100301.84
2022-11-09T12:56:06.151Z,100306.22
2022-11-09T12:58:34.239Z,100301.00
2022-11-09T13:01:43.992Z,100295.84
2022-11-09T13:04:17.740Z,100298.50
2022-11-09T13:07:04.135Z,100299.38
2022-11-09T13:09:44.059Z,100291.56
2022-11-09T13:12:35.083Z,100293.34
2022-11-09T13:15:24.820Z,100290.72
2022-11-09T13:17:55.985Z,100302.97
2022-11-09T13:20:53.921Z,100316.94
2022-11-09T13:23:47.642Z,100312.63
2022-11-09T13:26:44.807Z,100316.13
2022-11-09T13:29:41.633Z,100309.97
2022-11-09T13:32:11.168Z,100318.69
2022-11-09T13:34:46.588Z,100320.44
2022-11-09T13:37:34.362Z,100315.19
2022-11-09T13:40:00.817Z,100314.31
2022-11-09T13:42:32.899Z,100318.63
2022-11-09T13:45:35.929Z,100311.63
2022-11-09T13:48:02.867Z,100314.31
2022-11-09T13:50:30.752Z,100324.78
2022-11-09T13:52:59.073Z,100314.25
2022-11-09T13:55:31.051Z,100316.84
2022-11-09T13:58:28.862Z,100315.13
2022-11-09T14:00:55.409Z,100312.56
2022-11-09T14:03:24.903Z,100310.84
2022-11-09T14:05:54.342Z,100307.34
2022-11-09T14:08:26.268Z,100315.19
2022-11-09T14:11:18.209Z,100311.69
2022-11-09T14:14:03.161Z,100309.06
2022-11-09T14:16:42.435Z,100312.50
2022-11-09T14:19:27.613Z,100319.47
2022-11-09T14:21:54.358Z,100329.94
2022-11-09T14:24:29.488Z,100322.94
2022-11-09T14:27:04.833Z,100328.09
2022-11-09T14:29:33.123Z,100324.59
2022-11-09T14:32:16.824Z,100331.59
2022-11-09T14:34:43.282Z,100329.84
2022-11-09T14:37:11.920Z,100328.91
2022-11-09T14:39:38.839Z,100335.88
2022-11-09T14:42:12.345Z,100334.09
2022-11-09T14:44:48.390Z,100337.59
2022-11-09T14:47:31.013Z,100336.66
2022-11-09T14:49:58.398Z,100334.03
2022-11-09T14:52:28.531Z,100341.84
2022-11-09T14:54:55.125Z,100347.00
2022-11-09T14:57:23.059Z,100346.06
2022-11-09T14:59:49.634Z,100354.75
2022-11-09T15:02:18.377Z,100352.94
2022-11-09T15:05:29.797Z,100363.38
2022-11-09T15:07:56.359Z,100358.16
2022-11-09T15:10:24.201Z,100356.34
2022-11-09T15:12:54.948Z,100362.41
2022-11-09T15:15:24.849Z,100364.09
2022-11-09T15:17:51.998Z,100363.22
2022-11-09T15:20:18.376Z,100363.13
2022-11-09T15:22:55.234Z,100370.06
2022-11-09T15:25:43.444Z,100364.81
2022-11-09T15:28:12.871Z,100383.09
2022-11-09T15:30:46.129Z,100367.34
2022-11-09T15:33:24.245Z,100373.41
2022-11-09T15:35:59.768Z,100375.91
2022-11-09T15:38:35.424Z,100384.59
2022-11-09T15:41:03.517Z,100395.00
2022-11-09T15:43:30.150Z,100392.41
2022-11-09T15:45:57.481Z,100386.28
2022-11-09T15:48:24.062Z,100388.00
2022-11-09T15:50:50.552Z,100395.78
2022-11-09T15:53:17.032Z,100394.00
2022-11-09T15:55:43.534Z,100405.31
2022-11-09T15:58:14.324Z,100393.06
2022-11-09T16:00:41.529Z,100394.78
2022-11-09T16:03:08.819Z,100397.34
2022-11-09T16:05:35.263Z,100404.28
2022-11-09T16:08:01.894Z,100406.84
2022-11-09T16:10:30.382Z,100405.06
2022-11-09T16:12:57.362Z,100411.09
2022-11-09T16:15:24.357Z,100415.34
2022-11-09T16:17:52.813Z,100417.91
2022-11-09T16:20:20.249Z,100423.06
2022-11-09T16:22:47.212Z,100423.88
2022-11-09T16:25:14.296Z,100431.69
2022-11-09T16:27:50.225Z,100432.50
2022-11-09T16:30:17.873Z,100442.03
2022-11-09T16:32:44.341Z,100437.53
2022-11-09T16:35:28.000Z,100447.91
2022-11-09T16:37:55.793Z,100455.69
2022-11-09T16:40:22.353Z,100462.59
2022-11-09T16:42:49.232Z,100461.72
2022-11-09T16:45:16.214Z,100459.06
2022-11-09T16:47:47.626Z,100463.41
2022-11-09T16:50:14.195Z,100458.16
2022-11-09T16:52:40.664Z,100462.50
2022-11-09T16:55:09.414Z,100475.53
2022-11-09T16:57:36.165Z,100469.34
2022-11-09T17:00:04.135Z,100478.88
2022-11-09T17:02:30.614Z,100481.47
2022-11-09T17:04:57.279Z,100480.56
2022-11-09T17:07:23.749Z,100479.66
2022-11-09T17:09:50.201Z,100484.78
2022-11-09T17:12:16.691Z,100489.97
2022-11-09T17:14:43.205Z,100489.91
2022-11-09T17:17:09.725Z,100493.34
2022-11-09T17:19:36.614Z,100490.69
2022-11-09T17:22:04.480Z,100493.28
2022-11-09T17:24:31.926Z,100497.56
2022-11-09T17:26:58.552Z,100497.53
2022-11-09T17:29:25.073Z,100505.31
2022-11-09T17:31:51.685Z,100499.19
2022-11-09T17:34:18.331Z,100499.13
2022-11-09T17:39:31.298Z,100503.34
2022-11-09T17:41:57.852Z,100505.91
2022-11-09T17:44:24.293Z,100500.66
2022-11-09T17:46:50.783Z,100507.56
2022-11-09T17:49:17.273Z,100511.00
2022-11-09T17:51:43.774Z,100513.50
2022-11-09T17:54:10.340Z,100517.81
2022-11-09T17:56:36.846Z,100518.66
2022-11-09T17:59:04.967Z,100519.44
2022-11-09T18:01:35.097Z,100528.00
2022-11-09T18:04:09.679Z,100531.44
2022-11-09T18:06:36.637Z,100529.59
2022-11-09T18:09:39.672Z,100536.47
2022-11-09T18:11:50.467Z,100541.53
2022-11-09T18:14:17.069Z,100544.94
2022-11-09T18:16:43.634Z,100544.00
2022-11-09T18:19:10.088Z,100537.75
2022-11-09T18:21:36.528Z,100542.03
2022-11-09T18:24:03.100Z,100544.53
2022-11-09T18:26:31.287Z,100543.59
2022-11-09T18:28:57.778Z,100549.66
2022-11-09T18:31:24.571Z,100545.28
2022-11-09T18:33:51.343Z,100546.13
2022-11-09T18:36:19.757Z,100553.91
2022-11-09T18:38:46.434Z,100548.69
2022-11-09T18:41:15.463Z,100555.63
2022-11-09T18:43:42.110Z,100554.66
2022-11-09T18:46:10.502Z,100558.97
2022-11-09T18:48:37.661Z,100553.66
2022-11-09T18:51:05.499Z,100559.75
2022-11-09T18:53:40.383Z,100559.72
2022-11-09T18:56:10.390Z,100556.16
2022-11-09T18:58:36.908Z,100564.78
2022-11-09T19:01:07.851Z,100562.94
2022-11-09T19:03:34.639Z,100571.53
2022-11-09T19:06:28.291Z,100576.69
2022-11-09T19:09:15.749Z,100586.19
2022-11-09T19:11:43.488Z,100583.53
2022-11-09T19:14:10.927Z,100587.81
2022-11-09T19:16:38.548Z,100588.59
2022-11-09T19:19:07.289Z,100600.69
2022-11-09T19:21:40.195Z,100592.84
2022-11-09T19:24:08.037Z,100601.41
2022-11-09T19:26:35.245Z,100597.88
2022-11-09T19:29:01.711Z,100605.53
2022-11-09T19:31:28.353Z,100592.47
2022-11-09T19:33:55.029Z,100601.06
2022-11-09T19:36:30.399Z,100601.91
2022-11-09T19:38:58.741Z,100595.66
2022-11-09T19:41:26.387Z,100596.53
2022-11-09T19:43:54.804Z,100603.50
2022-11-09T19:46:21.813Z,100606.09
2022-11-09T19:48:48.364Z,100618.22
2022-11-09T19:51:15.970Z,100615.59
2022-11-09T19:53:42.934Z,100619.91
2022-11-09T19:56:11.547Z,100627.72
2022-11-09T19:58:38.850Z,100619.03
2022-11-09T20:01:08.099Z,100632.16
2022-11-09T20:03:35.406Z,100633.22
2022-11-09T20:06:02.528Z,100634.22
2022-11-09T20:08:32.399Z,100641.94
2022-11-09T20:11:07.607Z,100652.28
2022-11-09T20:13:34.627Z,100659.22
2022-11-09T20:16:03.207Z,100662.63
2022-11-09T20:18:30.258Z,100672.16
2022-11-09T20:20:56.818Z,100673.78
2022-11-09T20:23:23.245Z,100678.97
2022-11-09T20:25:50.661Z,100683.25
2022-11-09T20:28:17.136Z,100679.72
2022-11-09T20:30:44.553Z,100696.19
2022-11-09T20:33:10.969Z,100689.16
2022-11-09T20:35:37.376Z,100704.78
2022-11-09T20:38:03.803Z,100696.94
2022-11-09T20:40:30.221Z,100701.19
2022-11-09T20:42:56.644Z,100705.44
2022-11-09T20:45:23.052Z,100710.63
2022-11-09T20:48:07.539Z,100715.81
2022-11-09T20:50:36.430Z,100718.31
2022-11-09T20:53:03.932Z,100721.75
2022-11-09T20:55:30.460Z,100716.47
2022-11-09T20:57:56.852Z,100722.47
2022-11-09T21:00:24.670Z,100720.72
2022-11-09T21:02:51.260Z,100722.38
2022-11-09T21:05:17.781Z,100730.13
2022-11-09T21:07:45.437Z,100718.81
2022-11-09T21:10:11.844Z,100724.84
2022-11-09T21:12:38.249Z,100722.13
2022-11-09T21:15:05.126Z,100729.88
2022-11-09T21:17:31.749Z,100734.19
2022-11-09T21:19:58.208Z,100735.84
2022-11-09T21:22:44.567Z,100735.84
2022-11-09T21:25:29.589Z,100743.59
2022-11-09T21:28:14.685Z,100748.75
2022-11-09T21:30:41.087Z,100765.28
2022-11-09T21:33:07.541Z,100754.00
2022-11-09T21:35:33.979Z,100756.59
2022-11-09T21:38:00.385Z,100766.13
2022-11-09T21:40:27.796Z,100764.34
2022-11-09T21:42:55.432Z,100767.84
2022-11-09T21:45:21.842Z,100768.72
2022-11-09T21:47:48.284Z,100786.00
2022-11-09T21:50:14.726Z,100782.47
2022-11-09T21:52:41.132Z,100785.06
2022-11-09T21:55:07.805Z,100784.16
2022-11-09T21:57:34.261Z,100783.22
2022-11-09T22:00:00.699Z,100785.81
2022-11-09T22:02:27.088Z,100780.50
2022-11-09T22:04:53.510Z,100788.38
2022-11-09T22:07:19.913Z,100796.97
2022-11-09T22:10:09.408Z,100796.09
2022-11-09T22:12:56.323Z,100801.28
2022-11-09T22:15:41.460Z,100794.34
2022-11-09T22:18:07.936Z,100804.72
2022-11-09T22:20:52.879Z,100807.25
2022-11-09T22:23:19.537Z,100808.91
2022-11-09T22:25:48.073Z,100806.31
2022-11-09T22:28:14.640Z,100803.56
2022-11-09T22:30:41.301Z,100807.94
2022-11-09T22:33:07.774Z,100805.34
2022-11-09T22:35:34.225Z,100817.50
2022-11-09T22:38:01.901Z,100821.91
2022-11-09T22:40:28.342Z,100823.69
2022-11-09T22:42:55.943Z,100823.75
2022-11-09T22:45:22.371Z,100823.75
2022-11-09T22:47:48.885Z,100829.97
2022-11-09T22:50:15.446Z,100826.47
2022-11-09T22:52:41.950Z,100830.03
2022-11-09T22:55:08.829Z,100832.63
2022-11-09T22:57:37.042Z,100836.16
2022-11-09T23:00:04.081Z,100834.38
2022-11-09T23:02:30.493Z,100844.78
2022-11-09T23:04:56.893Z,100846.47
2022-11-09T23:07:23.311Z,100848.09
2022-11-09T23:09:49.725Z,100847.16
2022-11-09T23:12:16.124Z,100854.88
2022-11-09T23:15:01.068Z,100852.22
2022-11-09T23:17:46.015Z,100850.41
2022-11-09T23:20:12.455Z,100858.13
2022-11-09T23:22:38.851Z,100848.53
2022-11-09T23:25:24.397Z,100853.72
2022-11-09T23:27:51.939Z,100854.56
2022-11-09T23:30:19.048Z,100861.44
2022-11-09T23:32:45.565Z,100861.34
2022-11-09T23:35:11.997Z,100856.91
2022-11-09T23:37:38.405Z,100871.53
2022-11-09T23:40:05.388Z,100878.44
2022-11-09T23:42:31.943Z,100879.25
2022-11-09T23:44:58.379Z,100874.84
2022-11-09T23:47:24.772Z,100887.00
2022-11-09T23:49:51.213Z,100885.22
2022-11-09T23:52:17.642Z,100880.03
2022-11-09T23:54:45.563Z,100890.44
2022-11-09T23:57:12.631Z,100892.09
2022-11-09T23:59:39.174Z,100900.72
